Time;durP1;ratioP1;P1;durP2;ratioP2;P2;SDS_P1;SDS_P2;PMS_P1;PMS_P2;Temp;Humidity;BMP_temperature;BMP_pressure;BME280_temperature;BME280_humidity;BME280_pressure;Samples;Min_cycle;Max_cycle;Signal;HPM_P1;HPM_P2
2022/04/26 03:37:22;;;;;;;21.23;12.50;;;;;;;;;;5033508;28;20049;-67
2022/04/26 03:39:49;;;;;;;24.13;12.25;;;;;;;;;;5033103;28;20575;-67
2022/04/26 03:42:15;;;;;;;24.95;11.60;;;;;;;;;;5032596;28;20095;-67
2022/04/26 03:44:42;;;;;;;19.40;10.52;;;;;;;;;;5031873;28;20871;-67
2022/04/26 03:47:09;;;;;;;16.33;10.77;;;;;;;;;;5032510;28;20558;-67
2022/04/26 03:49:36;;;;;;;21.17;10.77;;;;;;;;;;5032605;28;20049;-67
2022/04/26 03:52:02;;;;;;;21.58;10.82;;;;;;;;;;5032452;28;20119;-67
2022/04/26 03:54:28;;;;;;;20.33;11.10;;;;;;;;;;5032949;28;20045;-66
2022/04/26 03:56:54;;;;;;;25.38;10.63;;;;;;;;;;5032468;28;20411;-66
2022/04/26 03:59:20;;;;;;;23.48;11.48;;;;;;;;;;5032411;28;20381;-66
2022/04/26 04:01:47;;;;;;;26.58;10.45;;;;;;;;;;5032791;28;20547;-66
2022/04/26 04:04:13;;;;;;;24.83;11.00;;;;;;;;;;5032578;28;20450;-66
2022/04/26 04:06:41;;;;;;;22.52;10.32;;;;;;;;;;5015391;28;20069;-66
2022/04/26 04:09:07;;;;;;;23.65;10.88;;;;;;;;;;5031191;28;20056;-66
2022/04/26 04:11:33;;;;;;;17.27;10.23;;;;;;;;;;5032326;28;20041;-66
2022/04/26 04:13:59;;;;;;;20.40;11.20;;;;;;;;;;5031700;28;20531;-66
2022/04/26 04:16:25;;;;;;;26.83;11.13;;;;;;;;;;5032411;28;20467;-66
2022/04/26 04:21:37;;;;;;;19.52;10.70;;;;;;;;;;5031469;28;20053;-66
2022/04/26 04:24:03;;;;;;;14.18;10.05;;;;;;;;;;5032443;28;20503;-66
2022/04/26 04:26:29;;;;;;;23.35;11.32;;;;;;;;;;5031922;28;20045;-66
2022/04/26 04:28:55;;;;;;;21.65;10.55;;;;;;;;;;5031456;28;20056;-66
2022/04/26 04:31:21;;;;;;;24.75;11.95;;;;;;;;;;5031839;28;20048;-66
2022/04/26 04:33:48;;;;;;;24.73;11.00;;;;;;;;;;5032021;28;20042;-66
2022/04/26 04:36:15;;;;;;;27.65;10.88;;;;;;;;;;5031097;28;20045;-66
2022/04/26 04:38:41;;;;;;;28.65;13.07;;;;;;;;;;5031504;28;20041;-66
2022/04/26 04:41:08;;;;;;;29.17;12.15;;;;;;;;;;5031465;28;20041;-66
2022/04/26 04:43:35;;;;;;;24.58;12.20;;;;;;;;;;5030971;28;20077;-66
2022/04/26 04:46:02;;;;;;;22.38;10.63;;;;;;;;;;5031365;28;20038;-66
2022/04/26 04:48:29;;;;;;;17.30;10.55;;;;;;;;;;5031794;28;20042;-66
2022/04/26 04:50:55;;;;;;;19.05;10.93;;;;;;;;;;5031995;28;20044;-66
2022/04/26 04:53:22;;;;;;;20.45;9.93;;;;;;;;;;5031473;28;20129;-66
2022/04/26 04:55:48;;;;;;;17.60;9.63;;;;;;;;;;5031835;28;20041;-66
2022/04/26 04:58:15;;;;;;;17.27;9.45;;;;;;;;;;5031483;28;20042;-66
2022/04/26 05:00:41;;;;;;;20.83;10.10;;;;;;;;;;5030941;28;20049;-66
2022/04/26 05:03:07;;;;;;;25.42;10.00;;;;;;;;;;5031389;28;20091;-66
2022/04/26 05:05:33;;;;;;;18.27;9.48;;;;;;;;;;5031191;28;20069;-66
2022/04/26 05:07:59;;;;;;;26.00;9.57;;;;;;;;;;5030730;28;20570;-66
2022/04/26 05:10:33;;;;;;;22.67;8.82;;;;;;;;;;5014857;28;20041;-66
2022/04/26 05:12:59;;;;;;;19.70;8.65;;;;;;;;;;5031475;28;20046;-66
2022/04/26 05:15:25;;;;;;;16.52;8.82;;;;;;;;;;5030743;28;20095;-66
2022/04/26 05:17:52;;;;;;;20.85;8.75;;;;;;;;;;5031147;28;20048;-66
2022/04/26 05:20:19;;;;;;;15.60;7.72;;;;;;;;;;5033991;28;20041;-66
2022/04/26 05:25:34;;;;;;;14.70;7.40;;;;;;;;;;5035333;28;20073;-66
2022/04/26 05:28:01;;;;;;;18.17;7.35;;;;;;;;;;5034939;28;20546;-66
2022/04/26 05:30:27;;;;;;;17.50;7.32;;;;;;;;;;5035045;28;20037;-66
2022/04/26 05:32:54;;;;;;;20.92;7.55;;;;;;;;;;5034651;28;20053;-66
2022/04/26 05:35:22;;;;;;;14.25;6.78;;;;;;;;;;5035046;28;20809;-67
2022/04/26 05:37:49;;;;;;;16.35;6.30;;;;;;;;;;5034675;28;20041;-67
2022/04/26 05:40:15;;;;;;;13.10;6.25;;;;;;;;;;5034705;28;20410;-67
2022/04/26 05:42:42;;;;;;;18.17;6.78;;;;;;;;;;5018042;28;20128;-67
2022/04/26 05:45:08;;;;;;;15.95;6.25;;;;;;;;;;5033692;28;20050;-67
2022/04/26 05:47:34;;;;;;;14.02;6.53;;;;;;;;;;5033540;28;20049;-67
2022/04/26 05:50:00;;;;;;;11.85;5.30;;;;;;;;;;5033944;28;20488;-67
2022/04/26 05:52:26;;;;;;;11.70;5.57;;;;;;;;;;5034028;28;20041;-67
2022/04/26 05:54:52;;;;;;;17.35;5.60;;;;;;;;;;5027393;28;20041;-66
2022/04/26 05:57:18;;;;;;;15.13;5.85;;;;;;;;;;5032513;28;20068;-66
2022/04/26 05:59:45;;;;;;;12.90;5.32;;;;;;;;;;5032553;28;20451;-66
2022/04/26 06:02:12;;;;;;;13.77;5.35;;;;;;;;;;5016292;28;20072;-66
2022/04/26 06:04:38;;;;;;;14.13;5.65;;;;;;;;;;5032720;28;20476;-66
2022/04/26 06:07:04;;;;;;;12.35;5.40;;;;;;;;;;5016415;28;20464;-68
2022/04/26 06:09:31;;;;;;;17.50;5.65;;;;;;;;;;5033176;28;20041;-67
2022/04/26 06:11:58;;;;;;;15.88;5.63;;;;;;;;;;5032704;28;20049;-67
2022/04/26 06:14:24;;;;;;;14.10;5.13;;;;;;;;;;5032306;28;20037;-66
2022/04/26 06:16:50;;;;;;;14.43;5.38;;;;;;;;;;5031861;28;20120;-66
2022/04/26 06:19:16;;;;;;;14.05;5.20;;;;;;;;;;5027015;28;20839;-66
2022/04/26 06:21:42;;;;;;;14.52;5.40;;;;;;;;;;5028604;28;20056;-66
2022/04/26 06:24:09;;;;;;;13.07;4.88;;;;;;;;;;5032262;28;20775;-67
2022/04/26 06:26:35;;;;;;;16.63;5.28;;;;;;;;;;5029235;28;20612;-66
2022/04/26 06:29:01;;;;;;;15.85;5.32;;;;;;;;;;5030452;28;20518;-66
2022/04/26 06:31:27;;;;;;;11.98;5.35;;;;;;;;;;5014156;28;20045;-66
2022/04/26 06:33:54;;;;;;;15.80;5.28;;;;;;;;;;5031989;28;20091;-66
2022/04/26 06:36:21;;;;;;;9.55;5.05;;;;;;;;;;5031683;28;20056;-65
2022/04/26 06:38:47;;;;;;;19.00;5.60;;;;;;;;;;5031685;28;20037;-65
2022/04/26 06:41:15;;;;;;;9.68;5.15;;;;;;;;;;5033379;28;20204;-64
2022/04/26 06:43:41;;;;;;;16.15;5.00;;;;;;;;;;5032169;28;20543;-66
2022/04/26 06:46:07;;;;;;;15.88;4.40;;;;;;;;;;5022752;28;20060;-64
2022/04/26 06:48:33;;;;;;;10.00;5.18;;;;;;;;;;5031039;28;20045;-64
2022/04/26 06:50:59;;;;;;;10.77;5.35;;;;;;;;;;5029484;28;20033;-65
2022/04/26 06:53:25;;;;;;;12.30;5.32;;;;;;;;;;5031553;28;20037;-65
2022/04/26 06:55:51;;;;;;;15.07;5.70;;;;;;;;;;5031310;28;20056;-66
2022/04/26 06:58:18;;;;;;;12.98;5.40;;;;;;;;;;5030263;28;20128;-64
2022/04/26 07:00:46;;;;;;;10.07;4.75;;;;;;;;;;5030906;28;20139;-65
2022/04/26 07:03:13;;;;;;;9.60;4.95;;;;;;;;;;5032061;28;20088;-64
2022/04/26 07:05:41;;;;;;;11.65;4.50;;;;;;;;;;5031761;28;20057;-63
2022/04/26 07:08:07;;;;;;;14.82;5.43;;;;;;;;;;5031929;28;20046;-64
2022/04/26 07:10:34;;;;;;;16.40;5.10;;;;;;;;;;5032033;28;20662;-64
2022/04/26 07:13:00;;;;;;;11.30;5.60;;;;;;;;;;5029773;28;20372;-65
2022/04/26 07:15:26;;;;;;;12.30;4.68;;;;;;;;;;5031083;28;20041;-65
2022/04/26 07:17:52;;;;;;;11.63;4.70;;;;;;;;;;5029634;28;20595;-64
2022/04/26 07:20:18;;;;;;;10.65;4.70;;;;;;;;;;5030934;28;20063;-66
2022/04/26 07:22:45;;;;;;;11.82;4.22;;;;;;;;;;5033364;28;20042;-66
2022/04/26 07:25:11;;;;;;;10.30;4.18;;;;;;;;;;5029591;28;20067;-64
2022/04/26 07:27:37;;;;;;;11.02;4.35;;;;;;;;;;5032150;28;20465;-64
2022/04/26 07:30:04;;;;;;;9.18;4.10;;;;;;;;;;5032399;28;20396;-64
2022/04/26 07:35:15;;;;;;;11.57;4.20;;;;;;;;;;5029698;28;20499;-64
2022/04/26 07:37:41;;;;;;;8.35;3.78;;;;;;;;;;5031685;28;20041;-64
2022/04/26 07:40:08;;;;;;;10.05;4.15;;;;;;;;;;5029324;28;20102;-64
2022/04/26 07:42:34;;;;;;;14.50;3.67;;;;;;;;;;5025633;28;20455;-66
2022/04/26 07:45:00;;;;;;;13.98;3.83;;;;;;;;;;5028295;28;20038;-65
2022/04/26 07:47:26;;;;;;;11.07;3.92;;;;;;;;;;5028816;28;20042;-65
2022/04/26 07:49:53;;;;;;;7.65;3.58;;;;;;;;;;5029205;28;20073;-64
2022/04/26 07:52:20;;;;;;;9.55;4.00;;;;;;;;;;5027474;28;20041;-63
2022/04/26 07:54:47;;;;;;;12.25;4.10;;;;;;;;;;5029834;28;20053;-63
2022/04/26 07:57:13;;;;;;;8.43;3.58;;;;;;;;;;5029271;28;20037;-64
2022/04/26 07:59:39;;;;;;;7.32;3.53;;;;;;;;;;5029862;28;20048;-64
2022/04/26 08:02:09;;;;;;;12.63;3.63;;;;;;;;;;5032238;28;20026;-65
2022/04/26 08:04:35;;;;;;;5.30;3.20;;;;;;;;;;5030902;28;20075;-64
2022/04/26 08:07:03;;;;;;;13.88;3.22;;;;;;;;;;5031377;28;20078;-65
2022/04/26 08:09:29;;;;;;;8.98;3.50;;;;;;;;;;5032102;28;20056;-65
2022/04/26 08:11:58;;;;;;;9.77;3.30;;;;;;;;;;5032850;28;20045;-65
2022/04/26 08:14:26;;;;;;;10.85;3.75;;;;;;;;;;5033533;28;20048;-65
2022/04/26 08:16:53;;;;;;;7.43;3.08;;;;;;;;;;5033589;28;20574;-64
2022/04/26 08:19:20;;;;;;;9.98;3.30;;;;;;;;;;5031710;28;20053;-68
2022/04/26 08:21:46;;;;;;;8.20;3.33;;;;;;;;;;5032704;28;20042;-65
2022/04/26 08:29:42;;;;;;;8.70;3.17;;;;;;;;;;5027546;28;20045;-66
2022/04/26 08:32:08;;;;;;;8.30;3.30;;;;;;;;;;5031763;28;20381;-65
2022/04/26 08:34:34;;;;;;;8.10;3.00;;;;;;;;;;5030639;28;20037;-65
2022/04/26 08:37:00;;;;;;;6.20;3.60;;;;;;;;;;5031752;28;20060;-65
2022/04/26 08:39:26;;;;;;;8.75;3.00;;;;;;;;;;5014869;28;20104;-65
2022/04/26 08:42:03;;;;;;;12.85;3.28;;;;;;;;;;5032321;28;20484;-64
2022/04/26 08:44:30;;;;;;;7.55;3.30;;;;;;;;;;5031643;28;20044;-64
2022/04/26 08:52:29;;;;;;;6.40;3.85;;;;;;;;;;5027594;28;20424;-65
2022/04/26 08:54:55;;;;;;;4.88;3.60;;;;;;;;;;5030089;28;20077;-65
2022/04/26 08:57:21;;;;;;;7.68;3.47;;;;;;;;;;5028892;28;20056;-66
2022/04/26 08:59:51;;;;;;;9.32;3.25;;;;;;;;;;5028740;28;20041;-65
2022/04/26 09:02:20;;;;;;;11.43;4.22;;;;;;;;;;5024968;28;20042;-66
2022/04/26 09:04:49;;;;;;;9.23;3.70;;;;;;;;;;5026266;28;20500;-65
2022/04/26 09:07:48;;;;;;;5.93;3.75;;;;;;;;;;5030593;28;20042;-64
2022/04/26 09:10:18;;;;;;;7.85;3.90;;;;;;;;;;4986251;28;20050;-65
2022/04/26 09:13:09;;;;;;;12.40;4.70;;;;;;;;;;5029347;28;20064;-65
2022/04/26 09:15:36;;;;;;;7.10;4.15;;;;;;;;;;5026694;28;20364;-68
2022/04/26 09:18:22;;;;;;;8.85;4.05;;;;;;;;;;5030080;28;20674;-64
2022/04/26 09:20:56;;;;;;;8.32;3.70;;;;;;;;;;5024785;28;20033;-65
2022/04/26 09:23:29;;;;;;;7.75;3.95;;;;;;;;;;5027521;28;20045;-65
2022/04/26 09:26:09;;;;;;;10.23;3.80;;;;;;;;;;5029567;28;20037;-64
2022/04/26 09:28:37;;;;;;;10.52;3.83;;;;;;;;;;5029985;28;20048;-66
2022/04/26 09:31:20;;;;;;;5.72;3.40;;;;;;;;;;5029986;28;20048;-66
2022/04/26 09:33:49;;;;;;;;;;;;;;;;;;5028862;28;20164;-65
2022/04/26 09:36:20;;;;;;;7.60;3.55;;;;;;;;;;5030801;28;19925;-65
2022/04/26 09:38:50;;;;;;;8.52;3.70;;;;;;;;;;5029564;28;20052;-65
2022/04/26 09:41:16;;;;;;;6.65;3.55;;;;;;;;;;5029400;28;20087;-65
2022/04/26 09:43:42;;;;;;;14.10;4.10;;;;;;;;;;5030911;28;20045;-65
2022/04/26 09:46:08;;;;;;;7.30;3.80;;;;;;;;;;5030696;28;20068;-65
2022/04/26 09:48:36;;;;;;;6.28;3.13;;;;;;;;;;5030697;28;20033;-66
2022/04/26 09:51:05;;;;;;;5.13;3.28;;;;;;;;;;5029849;28;20564;-65
2022/04/26 09:53:32;;;;;;;6.05;2.97;;;;;;;;;;5029496;28;20045;-66
2022/04/26 09:55:59;;;;;;;7.70;3.00;;;;;;;;;;5028036;28;20117;-67
2022/04/26 09:58:29;;;;;;;5.80;3.17;;;;;;;;;;5016753;28;20107;-68
2022/04/26 10:00:58;;;;;;;6.68;3.05;;;;;;;;;;5028693;28;20423;-66
2022/04/26 10:03:25;;;;;;;5.47;3.00;;;;;;;;;;5027558;28;20033;-68
2022/04/26 10:06:16;;;;;;;7.57;3.33;;;;;;;;;;5028656;28;20053;-67
2022/04/26 10:08:42;;;;;;;10.10;3.00;;;;;;;;;;5004383;28;20124;-66
2022/04/26 10:11:08;;;;;;;5.47;3.10;;;;;;;;;;5033114;28;20419;-66
2022/04/26 10:13:39;;;;;;;8.80;3.50;;;;;;;;;;5032221;28;20113;-66
2022/04/26 10:16:07;;;;;;;7.18;3.58;;;;;;;;;;5027683;28;20041;-66
2022/04/26 10:18:35;;;;;;;7.93;3.25;;;;;;;;;;5030263;28;20048;-66
2022/04/26 10:21:03;;;;;;;8.52;2.90;;;;;;;;;;5029921;28;20120;-65
2022/04/26 10:23:29;;;;;;;6.65;3.00;;;;;;;;;;5030547;28;20057;-65
2022/04/26 10:26:25;;;;;;;8.88;3.25;;;;;;;;;;5031312;28;20129;-66
2022/04/26 10:28:54;;;;;;;6.32;2.80;;;;;;;;;;5012089;28;20411;-66
2022/04/26 10:31:34;;;;;;;10.18;3.30;;;;;;;;;;5034389;28;20068;-66
2022/04/26 10:34:03;;;;;;;7.57;3.30;;;;;;;;;;5033345;28;20056;-66
2022/04/26 10:36:29;;;;;;;7.38;3.13;;;;;;;;;;5032565;28;20053;-66
2022/04/26 10:39:07;;;;;;;5.70;2.80;;;;;;;;;;5031895;28;20245;-66
2022/04/26 10:41:43;;;;;;;8.68;2.97;;;;;;;;;;5035075;28;20052;-66
2022/04/26 10:44:16;;;;;;;5.63;2.70;;;;;;;;;;5031033;28;20048;-66
2022/04/26 10:47:07;;;;;;;3.88;2.72;;;;;;;;;;5032099;28;20041;-66
2022/04/26 10:49:40;;;;;;;5.75;3.05;;;;;;;;;;5032536;28;20136;-66
2022/04/26 10:52:19;;;;;;;6.47;3.03;;;;;;;;;;5015522;28;20033;-66
2022/04/26 10:54:48;;;;;;;7.88;2.53;;;;;;;;;;5015743;28;20120;-66
2022/04/26 10:57:15;;;;;;;3.97;2.35;;;;;;;;;;5032283;28;20038;-66
2022/04/26 10:59:44;;;;;;;6.85;2.38;;;;;;;;;;5031517;28;20049;-66
2022/04/26 11:02:15;;;;;;;4.80;2.72;;;;;;;;;;5031627;28;20045;-66
2022/04/26 11:04:41;;;;;;;5.35;2.78;;;;;;;;;;5032471;28;20133;-66
2022/04/26 11:07:11;;;;;;;6.38;2.60;;;;;;;;;;5031692;28;20056;-67
2022/04/26 11:09:37;;;;;;;4.75;2.10;;;;;;;;;;5032068;28;20041;-65
2022/04/26 11:12:03;;;;;;;6.53;2.72;;;;;;;;;;5031236;28;20136;-68
2022/04/26 11:14:29;;;;;;;8.55;2.40;;;;;;;;;;5032002;28;20041;-67
2022/04/26 11:17:00;;;;;;;3.80;2.50;;;;;;;;;;5030284;28;20393;-66
2022/04/26 11:19:33;;;;;;;4.75;2.25;;;;;;;;;;5031748;28;20042;-65
2022/04/26 11:22:06;;;;;;;6.85;2.38;;;;;;;;;;5031764;28;20691;-65
2022/04/26 11:30:03;;;;;;;4.32;2.05;;;;;;;;;;5031872;28;20045;-67
2022/04/26 11:32:30;;;;;;;5.82;2.33;;;;;;;;;;5030356;28;20041;-67
2022/04/26 11:34:56;;;;;;;5.72;2.65;;;;;;;;;;5035998;28;20065;-68
2022/04/26 11:37:23;;;;;;;4.10;2.38;;;;;;;;;;5032334;28;20038;-66
2022/04/26 11:39:49;;;;;;;4.65;2.35;;;;;;;;;;5032464;28;20095;-68
2022/04/26 11:42:16;;;;;;;5.15;2.35;;;;;;;;;;5040715;28;20049;-67
2022/04/26 11:44:57;;;;;;;8.05;2.28;;;;;;;;;;5033956;28;20052;-68
2022/04/26 11:47:39;;;;;;;4.90;2.33;;;;;;;;;;5031639;28;20046;-67
2022/04/26 11:50:05;;;;;;;;;;;;;;;;;;5038857;28;20034;-68
2022/04/26 11:52:31;;;;;;;4.15;2.20;;;;;;;;;;5035356;28;19927;-68
2022/04/26 11:54:59;;;;;;;7.00;1.98;;;;;;;;;;5032689;28;20041;-65
2022/04/26 11:57:25;;;;;;;6.07;2.40;;;;;;;;;;5036423;28;20041;-65
2022/04/26 11:59:51;;;;;;;5.43;2.67;;;;;;;;;;5038363;28;20041;-65
2022/04/26 12:02:17;;;;;;;6.50;2.40;;;;;;;;;;5031968;28;20173;-62
2022/04/26 12:04:44;;;;;;;5.40;2.72;;;;;;;;;;5032874;28;20080;-62
2022/04/26 12:07:10;;;;;;;3.78;2.40;;;;;;;;;;5034834;28;20096;-62
2022/04/26 12:09:36;;;;;;;6.55;2.47;;;;;;;;;;5035307;28;20033;-62
2022/04/26 12:12:05;;;;;;;7.82;2.80;;;;;;;;;;5039114;28;20460;-64
2022/04/26 12:14:37;;;;;;;4.93;2.28;;;;;;;;;;5038180;28;20049;-63
2022/04/26 12:17:03;;;;;;;;;;;;;;;;;;5041248;28;20053;-64
2022/04/26 12:19:36;;;;;;;3.42;2.17;;;;;;;;;;5031940;28;19927;-62
2022/04/26 12:22:03;;;;;;;5.55;2.10;;;;;;;;;;5030997;28;20033;-63
2022/04/26 12:24:30;;;;;;;3.78;2.22;;;;;;;;;;5014952;28;20488;-63
2022/04/26 12:27:00;;;;;;;7.32;2.33;;;;;;;;;;5030492;28;20451;-63
2022/04/26 12:29:28;;;;;;;4.07;2.03;;;;;;;;;;5029502;28;20038;-63
2022/04/26 12:31:54;;;;;;;4.95;2.25;;;;;;;;;;5028965;28;20095;-64
2022/04/26 12:34:21;;;;;;;3.08;1.92;;;;;;;;;;5028977;28;20106;-63
2022/04/26 12:36:51;;;;;;;5.00;2.35;;;;;;;;;;5031303;28;20041;-62
2022/04/26 12:39:18;;;;;;;7.50;2.40;;;;;;;;;;5027769;28;20045;-63
2022/04/26 12:41:51;;;;;;;3.95;2.40;;;;;;;;;;5030788;28;20120;-64
2022/04/26 12:44:18;;;;;;;4.57;2.08;;;;;;;;;;5033160;28;20124;-64
2022/04/26 12:50:27;;;;;;;4.72;2.17;;;;;;;;;;5031098;28;20033;-62
2022/04/26 12:52:38;;;;;;;4.50;2.25;;;;;;;;;;5018784;28;20041;-64
2022/04/26 12:55:05;;;;;;;3.25;1.95;;;;;;;;;;5033807;28;20407;-64
2022/04/26 12:57:31;;;;;;;4.65;2.70;;;;;;;;;;5032734;28;20052;-63
2022/04/26 12:59:57;;;;;;;4.22;2.00;;;;;;;;;;5027601;28;20080;-64
2022/04/26 13:02:23;;;;;;;2.45;1.90;;;;;;;;;;5031201;28;20045;-64
2022/04/26 13:04:49;;;;;;;6.10;1.85;;;;;;;;;;5030423;28;20042;-63
2022/04/26 13:07:15;;;;;;;3.05;2.38;;;;;;;;;;5030134;28;20111;-63
2022/04/26 13:09:41;;;;;;;4.40;2.28;;;;;;;;;;5029667;28;20049;-63
2022/04/26 13:12:09;;;;;;;3.42;2.10;;;;;;;;;;5030014;28;20506;-65
2022/04/26 13:14:35;;;;;;;4.75;2.22;;;;;;;;;;5031794;28;20804;-65
2022/04/26 13:17:01;;;;;;;5.45;2.38;;;;;;;;;;5029647;28;20045;-65
2022/04/26 13:19:27;;;;;;;5.65;2.20;;;;;;;;;;5030104;28;20439;-63
2022/04/26 13:21:53;;;;;;;3.47;1.90;;;;;;;;;;5029494;28;20067;-64
2022/04/26 13:24:27;;;;;;;7.00;2.20;;;;;;;;;;5030716;28;20083;-64
2022/04/26 13:26:53;;;;;;;4.03;2.00;;;;;;;;;;5030222;28;20184;-63
2022/04/26 13:29:19;;;;;;;3.85;2.15;;;;;;;;;;5044341;28;20049;-65
2022/04/26 13:31:45;;;;;;;4.57;1.90;;;;;;;;;;5030286;28;20037;-64
2022/04/26 13:34:12;;;;;;;1.60;1.50;;;;;;;;;;5028621;28;20073;-63
2022/04/26 13:36:38;;;;;;;4.13;2.22;;;;;;;;;;5028827;28;20045;-63
2022/04/26 13:39:04;;;;;;;4.15;1.75;;;;;;;;;;5029370;28;20042;-63
2022/04/26 13:41:31;;;;;;;4.72;2.20;;;;;;;;;;5032818;28;20045;-63
2022/04/26 13:43:57;;;;;;;4.13;2.25;;;;;;;;;;5032700;28;20459;-63
2022/04/26 13:46:23;;;;;;;6.70;2.30;;;;;;;;;;5033274;28;20076;-63
2022/04/26 13:48:50;;;;;;;5.40;2.10;;;;;;;;;;5030507;28;20046;-64
2022/04/26 13:51:16;;;;;;;3.78;1.80;;;;;;;;;;5032455;28;20091;-64
2022/04/26 13:53:42;;;;;;;5.43;2.00;;;;;;;;;;5032324;28;20041;-62
2022/04/26 13:56:09;;;;;;;3.78;1.98;;;;;;;;;;5034221;28;20041;-62
2022/04/26 13:58:35;;;;;;;2.88;1.88;;;;;;;;;;5030032;28;20080;-64
2022/04/26 14:01:01;;;;;;;4.60;1.88;;;;;;;;;;5032710;28;20045;-64
2022/04/26 14:03:27;;;;;;;3.50;1.92;;;;;;;;;;5033389;28;20042;-64
2022/04/26 14:05:54;;;;;;;4.20;2.10;;;;;;;;;;5032699;28;20502;-64
2022/04/26 14:08:20;;;;;;;5.35;2.33;;;;;;;;;;5032826;28;20488;-63
2022/04/26 14:10:46;;;;;;;6.40;1.95;;;;;;;;;;5032780;28;20037;-64
2022/04/26 14:13:12;;;;;;;4.22;2.10;;;;;;;;;;5032759;28;20131;-64
2022/04/26 14:23:53;;;;;;;5.03;2.00;;;;;;;;;;5032445;28;20049;-62
2022/04/26 14:26:20;;;;;;;3.60;2.25;;;;;;;;;;5032021;28;20041;-62
2022/04/26 14:28:46;;;;;;;3.97;1.85;;;;;;;;;;5031711;28;20041;-62
2022/04/26 14:31:12;;;;;;;4.78;1.90;;;;;;;;;;5032212;28;20468;-62
2022/04/26 14:33:38;;;;;;;4.07;2.33;;;;;;;;;;5031906;28;20038;-63
2022/04/26 14:36:04;;;;;;;3.67;2.20;;;;;;;;;;5030448;28;20124;-63
2022/04/26 14:38:30;;;;;;;6.85;2.28;;;;;;;;;;5032224;28;20464;-64
2022/04/26 14:40:56;;;;;;;5.43;2.40;;;;;;;;;;5032390;28;20095;-64
2022/04/26 14:43:22;;;;;;;6.93;2.38;;;;;;;;;;5031582;28;20812;-64
2022/04/26 14:45:51;;;;;;;4.50;2.13;;;;;;;;;;5032361;28;20453;-64
2022/04/26 14:48:17;;;;;;;5.57;2.10;;;;;;;;;;5031426;28;20045;-64
2022/04/26 14:50:44;;;;;;;5.70;2.00;;;;;;;;;;5030635;28;20045;-64
2022/04/26 14:53:10;;;;;;;3.88;2.10;;;;;;;;;;5030560;28;20117;-63
2022/04/26 14:55:36;;;;;;;4.55;2.03;;;;;;;;;;5032546;28;20095;-63
2022/04/26 14:58:03;;;;;;;3.50;1.90;;;;;;;;;;5031383;28;20049;-63
2022/04/26 15:00:29;;;;;;;4.65;2.05;;;;;;;;;;5032633;28;20037;-63
2022/04/26 15:02:55;;;;;;;5.13;2.20;;;;;;;;;;5031860;28;20496;-63
2022/04/26 15:05:22;;;;;;;3.45;1.98;;;;;;;;;;5012064;28;20137;-63
2022/04/26 15:10:32;;;;;;;7.10;2.40;;;;;;;;;;5031272;28;20038;-63
2022/04/26 15:18:28;;;;;;;6.45;2.22;;;;;;;;;;5031999;28;20042;-63
2022/04/26 15:20:54;;;;;;;5.25;2.38;;;;;;;;;;5029022;28;20042;-63
2022/04/26 15:23:21;;;;;;;6.00;2.88;;;;;;;;;;5032560;28;20692;-63
2022/04/26 15:25:52;;;;;;;5.47;2.72;;;;;;;;;;5032582;28;20041;-63
2022/04/26 15:28:21;;;;;;;4.50;2.40;;;;;;;;;;5031688;28;20042;-63
2022/04/26 15:30:48;;;;;;;7.40;2.75;;;;;;;;;;5032149;28;20044;-63
2022/04/26 15:33:15;;;;;;;5.05;2.55;;;;;;;;;;5032290;28;20041;-63
2022/04/26 15:35:42;;;;;;;6.15;2.78;;;;;;;;;;5031885;28;20064;-63
2022/04/26 15:38:10;;;;;;;7.05;2.67;;;;;;;;;;5032699;28;20125;-63
2022/04/26 15:40:37;;;;;;;4.55;2.35;;;;;;;;;;5032231;28;20450;-64
2022/04/26 15:43:05;;;;;;;5.22;2.33;;;;;;;;;;5031883;28;20043;-64
2022/04/26 15:45:31;;;;;;;4.40;2.08;;;;;;;;;;5032291;28;20050;-64
2022/04/26 15:47:58;;;;;;;8.43;2.35;;;;;;;;;;5032085;28;20049;-64
2022/04/26 15:50:24;;;;;;;3.92;2.20;;;;;;;;;;5031759;28;20095;-64
2022/04/26 15:52:50;;;;;;;4.80;2.60;;;;;;;;;;5032244;28;20061;-64
2022/04/26 15:55:17;;;;;;;3.70;2.20;;;;;;;;;;5032072;28;20534;-64
2022/04/26 15:57:46;;;;;;;4.07;2.05;;;;;;;;;;5031723;28;20103;-64
2022/04/26 16:00:13;;;;;;;3.30;2.30;;;;;;;;;;5032659;28;20056;-63
2022/04/26 16:02:40;;;;;;;3.83;2.13;;;;;;;;;;5032549;28;20080;-63
2022/04/26 16:05:06;;;;;;;4.30;2.22;;;;;;;;;;5031178;28;20061;-63
2022/04/26 16:07:33;;;;;;;3.75;2.47;;;;;;;;;;5031966;28;20115;-63
2022/04/26 16:20:58;;;;;;;5.25;2.40;;;;;;;;;;5031603;28;20041;-63
2022/04/26 16:23:24;;;;;;;7.25;2.38;;;;;;;;;;5032139;28;20460;-63
2022/04/26 16:25:50;;;;;;;6.93;2.40;;;;;;;;;;5031779;28;20030;-63
2022/04/26 16:28:17;;;;;;;6.60;2.40;;;;;;;;;;5031351;28;20038;-63
2022/04/26 16:30:43;;;;;;;6.28;2.20;;;;;;;;;;5031858;28;20064;-63
2022/04/26 16:33:12;;;;;;;4.32;2.33;;;;;;;;;;5031986;28;20399;-63
2022/04/26 16:35:38;;;;;;;6.43;2.42;;;;;;;;;;5031280;28;20519;-63
2022/04/26 16:38:04;;;;;;;7.63;2.28;;;;;;;;;;5031653;28;20615;-63
2022/04/26 16:40:32;;;;;;;4.03;2.17;;;;;;;;;;5031742;28;20044;-63
2022/04/26 16:42:58;;;;;;;5.93;2.30;;;;;;;;;;5031121;28;20408;-63
2022/04/26 16:45:24;;;;;;;4.00;2.40;;;;;;;;;;5031749;28;20397;-63
2022/04/26 16:47:52;;;;;;;5.03;2.20;;;;;;;;;;5031834;28;20045;-63
2022/04/26 16:50:19;;;;;;;4.15;2.03;;;;;;;;;;5030809;28;20099;-63
2022/04/26 16:52:46;;;;;;;4.50;2.30;;;;;;;;;;5030540;28;20163;-63
2022/04/26 16:55:12;;;;;;;5.20;2.00;;;;;;;;;;5031659;28;20076;-63
2022/04/26 16:57:38;;;;;;;4.40;2.30;;;;;;;;;;5031025;28;20106;-63
2022/04/26 17:00:05;;;;;;;5.10;2.20;;;;;;;;;;5031580;28;20049;-63
2022/04/26 17:02:33;;;;;;;3.67;2.03;;;;;;;;;;5031629;28;20551;-63
2022/04/26 17:04:59;;;;;;;4.82;2.30;;;;;;;;;;5030700;28;20472;-62
2022/04/26 17:07:25;;;;;;;6.70;2.53;;;;;;;;;;5031281;28;20033;-62
2022/04/26 17:09:52;;;;;;;4.85;2.58;;;;;;;;;;5030892;28;20041;-62
2022/04/26 17:12:18;;;;;;;6.85;2.70;;;;;;;;;;5030855;28;20056;-62
2022/04/26 17:14:44;;;;;;;4.60;2.33;;;;;;;;;;5031390;28;20045;-63
2022/04/26 17:17:14;;;;;;;5.07;2.40;;;;;;;;;;5035495;28;20416;-63
2022/04/26 17:19:40;;;;;;;5.10;2.85;;;;;;;;;;5034758;28;20131;-63
2022/04/26 17:22:07;;;;;;;4.85;2.70;;;;;;;;;;5035634;28;20038;-62
2022/04/26 17:25:15;;;;;;;7.25;2.50;;;;;;;;;;5035208;28;20109;-62
2022/04/26 17:27:22;;;;;;;4.03;2.30;;;;;;;;;;5026875;28;20084;-62
2022/04/26 17:29:48;;;;;;;6.18;2.35;;;;;;;;;;5035361;28;20037;-63
2022/04/26 17:32:16;;;;;;;2.08;1.80;;;;;;;;;;5035386;28;20120;-63
2022/04/26 17:34:42;;;;;;;7.18;2.58;;;;;;;;;;5034800;28;20518;-63
2022/04/26 17:37:08;;;;;;;5.05;2.33;;;;;;;;;;5035271;28;20037;-63
2022/04/26 17:39:34;;;;;;;5.15;2.60;;;;;;;;;;5035205;28;20037;-63
2022/04/26 17:42:00;;;;;;;8.02;2.88;;;;;;;;;;5034527;28;20117;-62
2022/04/26 17:44:27;;;;;;;4.45;2.50;;;;;;;;;;5035023;28;20523;-62
2022/04/26 17:46:53;;;;;;;9.57;3.13;;;;;;;;;;5034919;28;20824;-62
2022/04/26 17:49:19;;;;;;;3.90;2.60;;;;;;;;;;5049464;28;20037;-62
2022/04/26 17:51:45;;;;;;;3.83;2.50;;;;;;;;;;5035030;28;20038;-62
2022/04/26 17:56:56;;;;;;;6.30;2.95;;;;;;;;;;5034189;28;20045;-62
2022/04/26 17:59:22;;;;;;;7.97;2.78;;;;;;;;;;5034853;28;20117;-62
2022/04/26 18:01:48;;;;;;;6.93;2.90;;;;;;;;;;5034935;28;20468;-62
2022/04/26 18:04:15;;;;;;;6.50;3.20;;;;;;;;;;5034056;28;20042;-62
2022/04/26 18:06:41;;;;;;;7.03;2.65;;;;;;;;;;5034332;28;20060;-62
2022/04/26 18:09:07;;;;;;;4.80;2.78;;;;;;;;;;5034628;28;20096;-62
2022/04/26 18:11:34;;;;;;;8.10;2.95;;;;;;;;;;5034035;28;20080;-62
2022/04/26 18:14:00;;;;;;;12.15;3.50;;;;;;;;;;5034688;28;20080;-62
2022/04/26 18:16:27;;;;;;;5.40;3.17;;;;;;;;;;5034522;28;20156;-62
2022/04/26 18:18:53;;;;;;;6.20;3.00;;;;;;;;;;5033710;28;20049;-62
2022/04/26 18:21:19;;;;;;;11.35;3.20;;;;;;;;;;5034523;28;20038;-62
2022/04/26 18:23:46;;;;;;;7.25;2.72;;;;;;;;;;5034265;28;20480;-62
2022/04/26 18:26:16;;;;;;;6.03;2.97;;;;;;;;;;5033132;28;20064;-62
2022/04/26 18:28:52;;;;;;;4.57;2.50;;;;;;;;;;5033288;28;20104;-62
2022/04/26 18:31:19;;;;;;;7.78;3.13;;;;;;;;;;5034308;28;20045;-62
2022/04/26 18:33:45;;;;;;;9.15;2.72;;;;;;;;;;5033583;28;20048;-62
2022/04/26 18:36:12;;;;;;;6.85;2.78;;;;;;;;;;5034129;28;20042;-62
2022/04/26 18:38:43;;;;;;;7.63;2.70;;;;;;;;;;5032499;28;20049;-62
2022/04/26 18:41:09;;;;;;;3.63;2.47;;;;;;;;;;5033613;28;20037;-62
2022/04/26 18:43:38;;;;;;;8.25;2.72;;;;;;;;;;5033929;28;20049;-62
2022/04/26 18:46:05;;;;;;;6.72;2.60;;;;;;;;;;5049385;28;20049;-62
2022/04/26 18:48:32;;;;;;;5.72;2.42;;;;;;;;;;5033131;28;20068;-62
2022/04/26 18:50:58;;;;;;;5.65;2.38;;;;;;;;;;5033611;28;20045;-62
2022/04/26 18:53:24;;;;;;;8.77;2.55;;;;;;;;;;5033874;28;20042;-62
2022/04/26 18:55:53;;;;;;;5.80;2.95;;;;;;;;;;5032914;28;20053;-62
2022/04/26 18:58:19;;;;;;;6.07;2.55;;;;;;;;;;5033842;28;20384;-62
2022/04/26 19:00:46;;;;;;;7.10;2.85;;;;;;;;;;5033701;28;20472;-62
2022/04/26 19:03:12;;;;;;;14.30;3.10;;;;;;;;;;5033039;28;20123;-62
2022/04/26 19:05:38;;;;;;;6.68;2.70;;;;;;;;;;5033085;28;20053;-62
2022/04/26 19:08:05;;;;;;;8.07;2.63;;;;;;;;;;5033472;28;20045;-62
2022/04/26 19:13:15;;;;;;;11.18;2.63;;;;;;;;;;5033210;28;20049;-62
2022/04/26 19:15:42;;;;;;;7.72;3.38;;;;;;;;;;5033421;28;20092;-62
2022/04/26 19:18:08;;;;;;;6.47;2.53;;;;;;;;;;5032737;28;20522;-62